Time;durP1;ratioP1;P1;durP2;ratioP2;P2;SDS_P1;SDS_P2;PMS_P1;PMS_P2;Temp;Humidity;BMP_temperature;BMP_pressure;BME280_temperature;BME280_humidity;BME280_pressure;Samples;Min_cycle;Max_cycle;Signal;HPM_P1;HPM_P2
2022/10/14 00:01:19;;;;;;;38.67;27.48;;;;;;;13.41;100.00;100520.88;5075092;28;20222;-75
2022/10/14 00:03:46;;;;;;;37.60;26.33;;;;;;;13.36;100.00;100531.06;5074760;28;20682;-75
2022/10/14 00:06:15;;;;;;;35.30;25.60;;;;;;;13.40;100.00;100529.06;5075282;28;20225;-75
2022/10/14 00:08:42;;;;;;;38.10;26.90;;;;;;;13.34;100.00;100527.56;5074541;28;20223;-74
2022/10/14 00:11:11;;;;;;;39.42;26.00;;;;;;;13.36;100.00;100533.75;5074821;28;20199;-74
2022/10/14 00:13:39;;;;;;;38.20;25.75;;;;;;;13.37;100.00;100524.72;5074544;28;20200;-75
2022/10/14 00:16:07;;;;;;;41.05;27.50;;;;;;;13.35;100.00;100515.81;5078032;28;20201;-76
2022/10/14 00:18:33;;;;;;;41.75;28.15;;;;;;;13.30;100.00;100523.31;5078634;28;20227;-74
2022/10/14 00:21:02;;;;;;;39.83;27.30;;;;;;;13.33;100.00;100521.28;5078466;28;20208;-74
2022/10/14 00:23:28;;;;;;;38.47;25.90;;;;;;;13.34;100.00;100516.75;5078607;28;20200;-74
2022/10/14 00:25:55;;;;;;;40.20;27.75;;;;;;;13.36;100.00;100517.53;5078684;28;20658;-74
2022/10/14 00:28:21;;;;;;;34.70;25.63;;;;;;;13.31;100.00;100516.91;5077575;28;20231;-75
2022/10/14 00:30:57;;;;;;;37.03;26.00;;;;;;;13.31;100.00;100522.34;5060856;28;20396;-75
2022/10/14 00:33:25;;;;;;;36.40;25.27;;;;;;;13.38;100.00;100520.16;5091290;28;20617;-75
2022/10/14 00:35:55;;;;;;;35.70;24.58;;;;;;;13.28;100.00;100530.63;5088922;28;20547;-74
2022/10/14 00:38:22;;;;;;;31.67;24.58;;;;;;;13.27;100.00;100534.25;5078376;28;20228;-75
2022/10/14 00:40:48;;;;;;;35.28;24.50;;;;;;;13.20;100.00;100532.81;5056933;28;20201;-74
2022/10/14 00:43:15;;;;;;;36.80;25.42;;;;;;;13.25;100.00;100533.44;5057298;28;20216;-75
2022/10/14 00:45:42;;;;;;;34.30;23.25;;;;;;;13.26;100.00;100535.22;5058648;28;20197;-74
2022/10/14 00:48:10;;;;;;;34.78;23.60;;;;;;;13.26;100.00;100532.50;5062931;28;20221;-73
2022/10/14 00:50:38;;;;;;;32.70;23.77;;;;;;;13.26;100.00;100530.66;5086373;28;20223;-73
2022/10/14 00:53:05;;;;;;;35.47;24.15;;;;;;;13.27;100.00;100535.13;5077646;28;20215;-75
2022/10/14 00:55:31;;;;;;;30.80;23.42;;;;;;;13.25;100.00;100530.75;5073526;28;20204;-75
2022/10/14 00:57:58;;;;;;;36.03;24.73;;;;;;;13.28;100.00;100528.78;5073279;28;20220;-74
2022/10/14 01:00:24;;;;;;;36.30;25.17;;;;;;;13.25;100.00;100528.03;5074501;28;20204;-74
2022/10/14 01:02:51;;;;;;;34.88;22.83;;;;;;;13.28;100.00;100536.03;5075448;28;20208;-74
2022/10/14 01:05:20;;;;;;;35.47;23.67;;;;;;;13.27;100.00;100520.72;5073447;28;20215;-75
2022/10/14 01:07:59;;;;;;;31.95;21.67;;;;;;;13.27;100.00;100524.31;5074098;28;20238;-75
2022/10/14 01:10:33;;;;;;;28.83;21.33;;;;;;;13.21;100.00;100530.06;5074135;28;20191;-75
2022/10/14 01:13:14;;;;;;;35.75;23.40;;;;;;;13.19;100.00;100529.25;5073995;28;20612;-75
2022/10/14 01:15:47;;;;;;;32.38;23.10;;;;;;;13.20;100.00;100522.88;5073844;28;20188;-75
2022/10/14 01:18:35;;;;;;;30.38;22.15;;;;;;;13.23;100.00;100520.03;5073540;28;20223;-75
2022/10/14 01:21:14;;;;;;;30.00;22.67;;;;;;;13.29;100.00;100514.28;5073593;28;20224;-73
2022/10/14 01:24:08;;;;;;;31.58;23.25;;;;;;;13.26;100.00;100516.28;5073858;28;20191;-75
2022/10/14 01:26:51;;;;;;;32.22;23.10;;;;;;;13.27;100.00;100507.19;5073854;28;20235;-75
2022/10/14 01:29:32;;;;;;;38.00;24.80;;;;;;;13.29;100.00;100514.28;5073739;28;20243;-74
2022/10/14 01:32:06;;;;;;;39.42;25.30;;;;;;;13.22;100.00;100507.44;5073713;28;20189;-76
2022/10/14 01:34:40;;;;;;;36.10;25.42;;;;;;;13.26;100.00;100495.50;5073244;28;20203;-75
2022/10/14 01:37:14;;;;;;;36.50;24.42;;;;;;;13.27;100.00;100499.06;5073735;28;20191;-75
2022/10/14 01:39:44;;;;;;;35.42;25.13;;;;;;;13.30;100.00;100501.66;5072995;28;20236;-75
2022/10/14 01:42:17;;;;;;;37.40;24.75;;;;;;;13.32;100.00;100494.34;5073878;28;20656;-76
2022/10/14 01:44:48;;;;;;;32.20;24.70;;;;;;;13.34;100.00;100492.41;5073604;28;20192;-74
2022/10/14 01:47:20;;;;;;;33.45;24.38;;;;;;;13.41;100.00;100499.25;5074522;28;20302;-74
2022/10/14 01:49:53;;;;;;;35.40;23.80;;;;;;;13.37;100.00;100486.84;5075224;28;20240;-75
2022/10/14 01:52:26;;;;;;;34.03;23.50;;;;;;;13.32;100.00;100489.81;5075218;28;20185;-74
2022/10/14 01:54:56;;;;;;;32.08;23.98;;;;;;;13.35;100.00;100475.22;5074079;28;20196;-74
2022/10/14 01:57:26;;;;;;;31.30;24.05;;;;;;;13.27;100.00;100469.31;5073924;28;20200;-74
2022/10/14 01:59:55;;;;;;;33.08;24.55;;;;;;;13.36;100.00;100485.06;5073421;28;20653;-74
2022/10/14 02:02:24;;;;;;;32.17;24.30;;;;;;;13.39;100.00;100479.50;5073313;28;20592;-76
2022/10/14 02:04:51;;;;;;;37.15;23.98;;;;;;;13.41;100.00;100479.41;5072528;28;20196;-74
2022/10/14 02:07:23;;;;;;;33.60;23.45;;;;;;;13.37;100.00;100476.03;5072603;28;20223;-74
2022/10/14 02:10:03;;;;;;;37.13;26.75;;;;;;;13.34;100.00;100459.94;5072698;28;20232;-74
2022/10/14 02:12:38;;;;;;;35.03;24.52;;;;;;;13.34;100.00;100473.47;5076395;28;20293;-74
2022/10/14 02:15:13;;;;;;;32.97;24.65;;;;;;;13.30;100.00;100467.38;5083115;28;20205;-74
2022/10/14 02:17:51;;;;;;;36.10;25.95;;;;;;;13.29;100.00;100468.31;5081030;28;20180;-74
2022/10/14 02:20:25;;;;;;;36.47;25.10;;;;;;;13.31;100.00;100465.53;5074627;28;20185;-74
2022/10/14 02:22:57;;;;;;;37.67;25.35;;;;;;;13.33;100.00;100450.09;5072451;28;20193;-76
2022/10/14 02:25:30;;;;;;;31.85;24.65;;;;;;;13.34;100.00;100446.41;5072921;28;20185;-76
2022/10/14 02:27:58;;;;;;;38.50;25.88;;;;;;;13.32;100.00;100445.66;5072560;28;20228;-75
2022/10/14 02:30:27;;;;;;;37.38;24.80;;;;;;;13.24;100.00;100446.03;5072862;28;20211;-74
2022/10/14 02:32:57;;;;;;;37.15;24.85;;;;;;;13.33;100.00;100450.09;5071736;28;20192;-75
2022/10/14 02:35:24;;;;;;;36.67;26.00;;;;;;;13.35;100.00;100440.94;5072407;28;20561;-74
2022/10/14 02:37:53;;;;;;;31.52;23.85;;;;;;;13.35;100.00;100445.47;5072445;28;20234;-74
2022/10/14 02:40:26;;;;;;;31.73;24.02;;;;;;;13.38;100.00;100433.59;5072501;28;20635;-74
2022/10/14 02:42:53;;;;;;;31.20;23.27;;;;;;;13.39;100.00;100436.22;5072790;28;20185;-74
2022/10/14 02:45:20;;;;;;;34.55;25.60;;;;;;;13.42;100.00;100430.63;5072003;28;20197;-75
2022/10/14 02:47:47;;;;;;;35.40;24.33;;;;;;;13.38;100.00;100433.59;5071866;28;20256;-74
2022/10/14 02:50:17;;;;;;;34.92;24.60;;;;;;;13.37;100.00;100426.47;5072358;28;20200;-75
2022/10/14 02:52:44;;;;;;;38.30;23.92;;;;;;;13.37;100.00;100424.63;5072497;28;20181;-76
2022/10/14 02:55:11;;;;;;;33.80;23.58;;;;;;;13.35;100.00;100422.00;5072767;28;20200;-75
2022/10/14 02:57:37;;;;;;;34.78;25.63;;;;;;;13.36;100.00;100420.16;5071651;28;20192;-74
2022/10/14 03:00:05;;;;;;;30.60;22.80;;;;;;;13.42;100.00;100417.09;5072378;28;20207;-74
2022/10/14 03:02:32;;;;;;;31.75;22.92;;;;;;;13.34;100.00;100411.25;5091350;28;20224;-74
2022/10/14 03:04:58;;;;;;;27.77;21.75;;;;;;;13.42;100.00;100417.09;5094687;28;20199;-74
2022/10/14 03:07:26;;;;;;;30.00;22.33;;;;;;;13.42;100.00;100417.09;5079390;28;20568;-77
2022/10/14 03:09:53;;;;;;;30.83;23.35;;;;;;;13.44;100.00;100412.50;5071887;28;20204;-76
2022/10/14 03:12:19;;;;;;;29.90;23.30;;;;;;;13.43;100.00;100410.75;5071878;28;20204;-76
2022/10/14 03:14:46;;;;;;;34.97;22.20;;;;;;;13.39;100.00;100406.47;5071815;28;20684;-74
2022/10/14 03:17:12;;;;;;;33.42;22.27;;;;;;;13.45;100.00;100406.09;5072281;28;20265;-74
2022/10/14 03:19:39;;;;;;;31.73;22.52;;;;;;;13.45;100.00;100405.25;5078178;28;20223;-74
2022/10/14 03:22:05;;;;;;;31.00;23.35;;;;;;;13.41;100.00;100404.56;5093815;28;20200;-74
2022/10/14 03:24:33;;;;;;;31.13;22.13;;;;;;;13.50;100.00;100409.44;5091572;28;20269;-74
2022/10/14 03:27:00;;;;;;;29.10;23.10;;;;;;;13.47;100.00;100404.19;5096924;28;20296;-74
2022/10/14 03:29:26;;;;;;;27.27;21.02;;;;;;;13.47;100.00;100406.03;5097545;28;20224;-75
2022/10/14 03:31:53;;;;;;;28.40;20.80;;;;;;;13.47;100.00;100412.31;5097176;28;20204;-74
2022/10/14 03:34:19;;;;;;;33.47;22.15;;;;;;;13.41;100.00;100401.84;5096532;28;20211;-75
2022/10/14 03:36:46;;;;;;;28.17;21.90;;;;;;;13.42;100.00;100403.59;5097621;28;20200;-77
2022/10/14 03:39:13;;;;;;;31.50;22.10;;;;;;;13.49;100.00;100404.09;5096480;28;20238;-75
2022/10/14 03:41:40;;;;;;;28.33;22.75;;;;;;;13.46;100.00;100398.88;5091425;28;20204;-76
2022/10/14 03:44:07;;;;;;;33.78;23.25;;;;;;;13.41;100.00;100400.97;5077886;28;20662;-75
2022/10/14 03:46:34;;;;;;;28.48;21.70;;;;;;;13.43;100.00;100396.34;5078523;28;20205;-74
2022/10/14 03:49:00;;;;;;;30.77;21.17;;;;;;;13.40;100.00;100399.22;5079502;28;20228;-74
2022/10/14 03:51:27;;;;;;;29.23;22.00;;;;;;;13.38;100.00;100390.31;5079848;28;20215;-76
2022/10/14 03:53:53;;;;;;;28.98;21.75;;;;;;;13.35;100.00;100392.25;5080028;28;20670;-73
2022/10/14 03:56:21;;;;;;;29.80;22.67;;;;;;;13.28;100.00;100388.16;5078619;28;20196;-73
2022/10/14 03:58:48;;;;;;;30.63;22.65;;;;;;;13.29;100.00;100392.56;5079218;28;20213;-73
2022/10/14 04:01:15;;;;;;;33.75;22.75;;;;;;;13.33;100.00;100385.19;5078196;28;20204;-74
2022/10/14 04:03:45;;;;;;;30.00;21.73;;;;;;;13.25;100.00;100380.19;5077946;28;20193;-74
2022/10/14 04:06:12;;;;;;;31.33;21.90;;;;;;;13.29;100.00;100375.50;5080270;28;20203;-75
2022/10/14 04:08:38;;;;;;;30.73;22.05;;;;;;;13.26;100.00;100379.22;5082658;28;20709;-75
2022/10/14 04:11:05;;;;;;;32.42;23.00;;;;;;;13.27;100.00;100372.84;5083037;28;20209;-74
2022/10/14 04:13:32;;;;;;;36.08;24.73;;;;;;;13.27;100.00;100378.28;5079387;28;20265;-74
2022/10/14 04:16:04;;;;;;;36.60;24.27;;;;;;;13.32;100.00;100381.59;5078342;28;20210;-78
2022/10/14 04:18:30;;;;;;;33.75;23.23;;;;;;;13.32;100.00;100383.44;5077834;28;20217;-76
2022/10/14 04:21:00;;;;;;;40.45;24.00;;;;;;;13.35;100.00;100377.84;5078083;28;20690;-76
2022/10/14 04:23:27;;;;;;;29.13;22.60;;;;;;;13.30;100.00;100375.41;5076957;28;20192;-73
2022/10/14 04:25:53;;;;;;;30.90;21.23;;;;;;;13.35;100.00;100383.25;5076386;28;20200;-73
2022/10/14 04:28:20;;;;;;;35.10;21.13;;;;;;;13.31;100.00;100377.13;5075247;28;20589;-75
2022/10/14 04:30:46;;;;;;;27.05;19.92;;;;;;;13.36;100.00;100382.28;5076077;28;20201;-73
2022/10/14 04:33:14;;;;;;;34.88;22.33;;;;;;;13.26;100.00;100372.94;5073826;28;20209;-74
2022/10/14 04:35:41;;;;;;;30.98;19.83;;;;;;;13.28;100.00;100373.75;5075114;28;20212;-75
2022/10/14 04:38:07;;;;;;;36.65;24.40;;;;;;;13.27;100.00;100359.34;5095128;22;20235;-75
2022/10/14 04:40:34;;;;;;;30.33;22.05;;;;;;;13.27;100.00;100364.75;5055868;28;20208;-76
2022/10/14 04:43:00;;;;;;;32.50;21.40;;;;;;;13.29;100.00;100356.56;5057167;28;20627;-74
2022/10/14 04:45:27;;;;;;;27.70;20.70;;;;;;;13.26;100.00;100360.28;5056706;28;20201;-74
2022/10/14 04:47:53;;;;;;;32.92;22.63;;;;;;;13.27;100.00;100363.84;5055433;28;20225;-74
2022/10/14 04:50:21;;;;;;;29.75;21.45;;;;;;;13.23;100.00;100354.16;5037229;28;20202;-73
2022/10/14 04:52:48;;;;;;;34.83;21.25;;;;;;;13.31;100.00;100357.34;5036669;28;20217;-73
2022/10/14 04:55:14;;;;;;;32.20;20.08;;;;;;;13.28;100.00;100357.53;5036931;28;20202;-74
2022/10/14 04:57:42;;;;;;;30.05;22.48;;;;;;;13.26;100.00;100354.00;5036618;28;20667;-74
2022/10/14 05:00:10;;;;;;;33.55;22.65;;;;;;;13.30;100.00;100347.50;5036345;28;20218;-73
2022/10/14 05:02:37;;;;;;;34.78;22.73;;;;;;;13.33;100.00;100350.00;5036632;28;20210;-75
2022/10/14 05:05:04;;;;;;;33.47;21.77;;;;;;;13.44;100.00;100350.25;5021413;28;20229;-74
2022/10/14 05:07:32;;;;;;;30.58;20.08;;;;;;;13.39;100.00;100341.56;5030739;28;20755;-72
2022/10/14 05:09:58;;;;;;;32.45;21.63;;;;;;;13.37;100.00;100337.19;5029896;28;20228;-73
2022/10/14 05:12:25;;;;;;;30.83;21.00;;;;;;;13.26;100.00;100338.66;5024473;28;20207;-74
2022/10/14 05:14:51;;;;;;;30.13;20.05;;;;;;;13.27;100.00;100334.09;5019328;28;20202;-75
2022/10/14 05:17:19;;;;;;;29.58;21.27;;;;;;;13.34;100.00;100339.13;5017750;28;20226;-76
2022/10/14 05:19:45;;;;;;;32.47;21.48;;;;;;;13.30;100.00;100344.78;5037324;28;20304;-74
2022/10/14 05:22:12;;;;;;;27.02;20.05;;;;;;;13.29;100.00;100326.81;5038241;28;20213;-75
2022/10/14 05:24:40;;;;;;;30.35;22.33;;;;;;;13.33;100.00;100339.19;5037371;28;20710;-74
2022/10/14 05:27:06;;;;;;;29.58;20.48;;;;;;;13.36;100.00;100339.00;5034525;28;20321;-74
2022/10/14 05:29:33;;;;;;;37.40;26.15;;;;;;;13.37;100.00;100335.34;5035217;28;20313;-76
2022/10/14 05:32:00;;;;;;;33.30;23.35;;;;;;;13.40;100.00;100329.75;5035563;28;20206;-75
2022/10/14 05:34:27;;;;;;;29.30;21.70;;;;;;;13.34;100.00;100340.94;5053010;28;20202;-74
2022/10/14 05:36:54;;;;;;;32.03;22.45;;;;;;;13.35;100.00;100332.72;5059149;28;20186;-74
2022/10/14 05:39:20;;;;;;;29.90;21.50;;;;;;;13.32;100.00;100332.06;5058128;28;20214;-76
2022/10/14 05:41:48;;;;;;;32.22;21.92;;;;;;;13.35;100.00;100329.16;5058996;28;20254;-74
2022/10/14 05:44:15;;;;;;;29.25;21.05;;;;;;;13.30;100.00;100332.13;5057809;28;20186;-74
2022/10/14 05:46:42;;;;;;;31.67;21.85;;;;;;;13.33;100.00;100334.66;5058749;28;20274;-75
2022/10/14 05:49:10;;;;;;;29.63;20.58;;;;;;;13.35;100.00;100332.72;5058362;28;20269;-74
2022/10/14 05:51:36;;;;;;;27.45;20.33;;;;;;;13.28;100.00;100330.47;5044721;28;20289;-74
2022/10/14 05:54:03;;;;;;;34.05;22.70;;;;;;;13.24;100.00;100329.75;5036311;28;20236;-75
2022/10/14 05:56:30;;;;;;;31.15;21.92;;;;;;;13.27;100.00;100329.59;5036066;28;20206;-75
2022/10/14 05:58:58;;;;;;;32.10;21.50;;;;;;;13.30;100.00;100328.56;5034365;28;20226;-74
2022/10/14 06:01:24;;;;;;;31.08;22.50;;;;;;;13.20;100.00;100314.66;5034754;28;20206;-74
2022/10/14 06:03:51;;;;;;;31.95;21.73;;;;;;;13.22;100.00;100319.97;5034282;28;20205;-74
2022/10/14 06:06:18;;;;;;;39.08;22.88;;;;;;;13.32;100.00;100324.81;5034909;28;20198;-73
2022/10/14 06:08:44;;;;;;;33.58;22.25;;;;;;;13.34;100.00;100316.59;5033765;28;20236;-73
2022/10/14 06:11:14;;;;;;;30.20;21.35;;;;;;;13.26;100.00;100319.72;5034517;28;20205;-74
2022/10/14 06:13:41;;;;;;;36.50;23.55;;;;;;;13.28;100.00;100319.66;5035207;28;20193;-74
2022/10/14 06:16:10;;;;;;;36.85;23.40;;;;;;;13.39;100.00;100319.91;5036403;28;20233;-74
2022/10/14 06:18:37;;;;;;;32.63;21.55;;;;;;;13.39;100.00;100317.22;5035041;28;20301;-74
2022/10/14 06:21:06;;;;;;;32.05;23.42;;;;;;;13.35;100.00;100318.34;5017704;28;20682;-73
2022/10/14 06:23:32;;;;;;;35.45;23.33;;;;;;;13.38;100.00;100312.75;5035072;28;20208;-73
2022/10/14 06:25:59;;;;;;;29.15;21.52;;;;;;;13.41;100.00;100317.09;5035469;28;20252;-74
2022/10/14 06:28:25;;;;;;;29.85;21.38;;;;;;;13.48;100.00;100313.97;5035559;28;20232;-74
2022/10/14 06:30:52;;;;;;;32.50;21.60;;;;;;;13.49;100.00;100318.41;5045418;28;20212;-74
2022/10/14 06:33:21;;;;;;;29.08;21.67;;;;;;;13.49;100.00;100318.41;5052028;28;20202;-74
2022/10/14 06:35:48;;;;;;;39.15;20.95;;;;;;;13.60;100.00;100327.72;5043544;28;20237;-74
2022/10/14 06:38:15;;;;;;;31.13;20.40;;;;;;;13.56;100.00;100325.19;5045835;28;20229;-75
2022/10/14 06:40:41;;;;;;;34.47;20.98;;;;;;;13.68;100.00;100322.72;5045039;28;20192;-74
2022/10/14 06:43:08;;;;;;;27.65;20.83;;;;;;;13.71;100.00;100327.97;5040115;28;20202;-73
2022/10/14 06:45:35;;;;;;;26.17;19.63;;;;;;;13.80;100.00;100327.41;5034649;28;20198;-74
2022/10/14 06:48:03;;;;;;;26.25;18.92;;;;;;;13.77;100.00;100333.03;5037054;28;20279;-74
2022/10/14 06:50:31;;;;;;;29.23;19.77;;;;;;;13.83;100.00;100345.31;5038426;28;20213;-73
2022/10/14 06:52:57;;;;;;;27.88;19.30;;;;;;;13.81;100.00;100341.81;5051073;28;20206;-74
2022/10/14 06:55:24;;;;;;;29.42;19.25;;;;;;;13.85;100.00;100352.38;5034761;28;20293;-74
2022/10/14 06:57:50;;;;;;;27.70;19.75;;;;;;;13.85;100.00;100346.94;5033839;28;20208;-74
2022/10/14 07:00:18;;;;;;;28.08;20.80;;;;;;;13.89;100.00;100348.50;5033692;28;20229;-74
2022/10/14 07:02:44;;;;;;;26.17;20.17;;;;;;;13.83;100.00;100348.88;5036214;28;20202;-75
2022/10/14 07:05:11;;;;;;;26.95;19.77;;;;;;;13.85;100.00;100352.38;5038718;28;20198;-75
2022/10/14 07:07:39;;;;;;;24.92;20.30;;;;;;;13.93;100.00;100350.09;5037280;28;20205;-74
2022/10/14 07:10:06;;;;;;;26.95;20.42;;;;;;;13.92;100.00;100348.31;5037323;28;20226;-74
2022/10/14 07:12:33;;;;;;;31.73;19.08;;;;;;;13.88;100.00;100346.75;5035182;28;20204;-73
2022/10/14 07:14:59;;;;;;;29.58;20.40;;;;;;;13.84;100.00;100349.75;5034605;28;20201;-74
2022/10/14 07:17:26;;;;;;;27.45;19.40;;;;;;;13.95;100.00;100348.16;5034614;28;20202;-73
2022/10/14 07:19:52;;;;;;;28.73;20.70;;;;;;;13.91;100.00;100349.28;5036964;28;20249;-74
2022/10/14 07:22:19;;;;;;;31.08;21.77;;;;;;;13.98;100.00;100344.38;5034158;28;20312;-74
2022/10/14 07:24:47;;;;;;;26.67;20.15;;;;;;;14.02;100.00;100342.34;5033977;28;20198;-75
2022/10/14 07:27:14;;;;;;;28.90;20.08;;;;;;;13.97;100.00;100334.50;5035892;28;20213;-73
2022/10/14 07:29:41;;;;;;;29.17;20.38;;;;;;;13.90;100.00;100343.97;5035546;28;20229;-73
2022/10/14 07:32:08;;;;;;;29.15;20.20;;;;;;;14.00;100.00;100346.97;5034973;28;20206;-73
2022/10/14 07:34:34;;;;;;;27.60;20.95;;;;;;;13.96;100.00;100346.31;5034880;28;20202;-74
2022/10/14 07:37:01;;;;;;;31.77;21.90;;;;;;;14.00;100.00;100342.47;5034442;28;20208;-74
2022/10/14 07:39:28;;;;;;;30.83;21.52;;;;;;;14.13;100.00;100345.28;5032802;28;20230;-74
2022/10/14 07:41:56;;;;;;;32.72;21.45;;;;;;;14.13;100.00;100348.88;5033438;28;20634;-73
2022/10/14 07:44:23;;;;;;;33.75;22.23;;;;;;;14.16;100.00;100350.53;5033777;28;20284;-74
2022/10/14 07:46:49;;;;;;;30.02;20.73;;;;;;;14.22;100.00;100355.53;5033951;28;20202;-73
2022/10/14 07:49:18;;;;;;;30.00;22.00;;;;;;;14.17;100.00;100357.66;5032578;28;20225;-75
2022/10/14 07:51:45;;;;;;;27.75;21.15;;;;;;;14.15;100.00;100352.34;5033320;28;20221;-73
2022/10/14 07:54:14;;;;;;;32.00;24.15;;;;;;;14.10;100.00;100351.75;5033617;28;20265;-73
2022/10/14 07:56:43;;;;;;;32.40;21.17;;;;;;;14.13;100.00;100356.09;5033641;28;20194;-74
2022/10/14 07:59:11;;;;;;;34.85;23.52;;;;;;;14.09;100.00;100351.88;5033691;28;20596;-74
2022/10/14 08:01:38;;;;;;;30.98;23.35;;;;;;;13.96;100.00;100355.28;5034901;28;20218;-73
2022/10/14 08:04:05;;;;;;;33.80;22.55;;;;;;;14.00;100.00;100338.84;5051086;28;20241;-73
2022/10/14 08:06:32;;;;;;;32.30;23.77;;;;;;;13.95;100.00;100352.66;5046729;28;20266;-74
2022/10/14 08:08:58;;;;;;;31.27;23.60;;;;;;;14.02;100.00;100350.47;5047322;28;20230;-74
2022/10/14 08:11:27;;;;;;;34.00;24.60;;;;;;;14.04;100.00;100345.84;5044421;28;20198;-74
2022/10/14 08:13:54;;;;;;;40.25;26.45;;;;;;;13.97;100.00;100346.22;5036978;28;20198;-74
2022/10/14 08:16:24;;;;;;;35.25;24.58;;;;;;;13.96;100.00;100333.63;5037430;28;20218;-74
2022/10/14 08:18:51;;;;;;;38.15;25.92;;;;;;;14.03;100.00;100334.13;5035654;28;20249;-74
2022/10/14 08:21:19;;;;;;;34.20;26.13;;;;;;;14.19;100.00;100326.81;5036692;28;20210;-73
2022/10/14 08:23:46;;;;;;;39.95;25.42;;;;;;;14.36;100.00;100325.78;5036204;28;20203;-73
2022/10/14 08:26:20;;;;;;;33.30;23.80;;;;;;;14.47;100.00;100333.25;5036367;28;20205;-76
2022/10/14 08:28:47;;;;;;;33.70;23.17;;;;;;;14.48;100.00;100336.81;5044293;28;20235;-74
2022/10/14 08:31:13;;;;;;;36.13;23.00;;;;;;;14.44;100.00;100333.41;5051089;28;20273;-74
2022/10/14 08:33:41;;;;;;;29.23;22.77;;;;;;;14.64;100.00;100334.06;5044607;28;20206;-73
2022/10/14 08:36:09;;;;;;;31.13;21.98;;;;;;;14.69;100.00;100338.19;5037491;28;20770;-74
2022/10/14 08:38:35;;;;;;;33.08;22.75;;;;;;;14.72;100.00;100340.72;5036862;28;20265;-74
2022/10/14 08:41:14;;;;;;;31.65;21.52;;;;;;;14.93;100.00;100341.19;5036325;28;20213;-74
2022/10/14 08:43:48;;;;;;;31.30;21.42;;;;;;;15.01;100.00;100346.09;5036247;28;20205;-73
2022/10/14 08:46:28;;;;;;;28.20;20.77;;;;;;;14.94;100.00;100342.06;5047959;28;20222;-73
2022/10/14 08:49:04;;;;;;;27.17;20.40;;;;;;;14.90;100.00;100354.06;5038536;28;20279;-74
2022/10/14 08:51:32;;;;;;;25.80;20.02;;;;;;;14.83;100.00;100359.00;5038204;28;20211;-74
2022/10/14 08:54:04;;;;;;;24.67;19.42;;;;;;;14.73;100.00;100349.72;5051328;28;20212;-74
2022/10/14 08:56:32;;;;;;;29.85;20.42;;;;;;;14.68;100.00;100341.88;5052263;28;20190;-73
2022/10/14 08:59:02;;;;;;;26.70;19.63;;;;;;;14.70;100.00;100348.09;5036653;28;20229;-74
2022/10/14 09:01:31;;;;;;;26.95;20.35;;;;;;;14.68;100.00;100351.88;5035836;28;20526;-73
2022/10/14 09:04:03;;;;;;;28.30;19.30;;;;;;;14.73;100.00;100356.00;5035988;28;20225;-75
2022/10/14 09:06:31;;;;;;;25.02;19.88;;;;;;;14.72;100.00;100348.88;5037829;28;20194;-74
2022/10/14 09:09:06;;;;;;;26.55;18.27;;;;;;;14.80;100.00;100341.09;5036811;28;20237;-74
2022/10/14 09:11:39;;;;;;;25.48;20.00;;;;;;;15.05;100.00;100344.06;5036970;28;20536;-72
2022/10/14 09:14:08;;;;;;;26.98;18.00;;;;;;;15.23;100.00;100341.03;5036439;28;20545;-73
2022/10/14 09:16:36;;;;;;;23.48;19.23;;;;;;;15.27;100.00;100343.56;5035590;28;20210;-74
2022/10/14 09:19:07;;;;;;;26.23;18.45;;;;;;;15.33;100.00;100351.25;5034562;28;20269;-74
2022/10/14 09:21:36;;;;;;;21.20;17.15;;;;;;;15.50;100.00;100347.44;5038955;28;20209;-75
2022/10/14 09:24:16;;;;;;;22.48;17.70;;;;;;;15.47;100.00;100355.78;5040737;28;20202;-75
2022/10/14 09:26:45;;;;;;;27.35;17.55;;;;;;;15.53;100.00;100350.81;5040671;28;20186;-74
2022/10/14 09:29:23;;;;;;;24.25;16.52;;;;;;;15.70;100.00;100344.25;5043251;28;20230;-74
2022/10/14 09:31:50;;;;;;;23.73;17.23;;;;;;;15.81;100.00;100335.44;5041036;28;20254;-74
2022/10/14 09:34:20;;;;;;;20.13;15.70;;;;;;;15.82;100.00;100329.88;5041876;28;20208;-74
2022/10/14 09:36:49;;;;;;;20.15;15.82;;;;;;;15.89;100.00;100322.19;5040711;28;20548;-74
2022/10/14 09:39:16;;;;;;;21.42;16.60;;;;;;;15.86;100.00;100316.97;5044630;28;20513;-74
2022/10/14 09:41:46;;;;;;;19.05;14.57;;;;;;;15.92;100.00;100307.50;5043210;28;20664;-73
2022/10/14 09:44:20;;;;;;;24.48;16.75;;;;;;;15.76;100.00;100308.59;5043303;28;20210;-75
2022/10/14 09:46:49;;;;;;;23.70;17.75;;;;;;;15.77;100.00;100307.59;5046745;28;20198;-73
2022/10/14 09:49:22;;;;;;;21.80;16.50;;;;;;;15.80;100.00;100310.09;5045345;28;20230;-73
2022/10/14 09:51:50;;;;;;;19.23;15.43;;;;;;;15.89;100.00;100303.16;5039597;28;20186;-74
2022/10/14 09:54:25;;;;;;;19.73;15.40;;;;;;;15.99;100.00;100298.84;5038107;28;20198;-74
2022/10/14 09:56:59;;;;;;;16.98;14.63;;;;;;;16.18;100.00;100298.41;5036576;28;20284;-74
2022/10/14 09:59:27;;;;;;;16.95;13.57;;;;;;;16.41;100.00;100293.19;5021967;28;20578;-73
2022/10/14 10:01:56;;;;;;;18.13;12.95;;;;;;;16.74;100.00;100260.00;5040398;28;20200;-74
2022/10/14 10:04:32;;;;;;;16.95;12.75;;;;;;;16.77;100.00;100253.44;5038854;28;20213;-73
2022/10/14 10:07:00;;;;;;;17.65;15.02;;;;;;;16.64;100.00;100256.19;5038325;28;20568;-74
2022/10/14 10:09:27;;;;;;;21.27;18.15;;;;;;;16.79;100.00;100248.78;5037618;28;20336;-74
2022/10/14 10:11:54;;;;;;;16.17;12.05;;;;;;;17.09;100.00;100245.66;5034779;28;20198;-73
2022/10/14 10:14:24;;;;;;;19.17;14.55;;;;;;;17.03;100.00;100238.81;5035062;28;20205;-73
2022/10/14 10:17:11;;;;;;;17.60;12.80;;;;;;;17.49;100.00;100237.19;5034765;28;20251;-74
2022/10/14 10:19:41;;;;;;;18.00;12.40;;;;;;;17.47;100.00;100231.84;5033907;28;20711;-76
2022/10/14 10:22:25;;;;;;;18.15;12.63;;;;;;;17.65;100.00;100232.28;5035202;28;20205;-74
2022/10/14 10:25:12;;;;;;;15.40;11.80;;;;;;;17.44;100.00;100236.69;5034964;28;20186;-74
2022/10/14 10:27:41;;;;;;;14.52;11.18;;;;;;;17.41;100.00;100232.34;5035073;28;20213;-74
2022/10/14 10:30:21;;;;;;;13.57;9.75;;;;;;;17.15;100.00;100228.88;5036020;28;20257;-73
2022/10/14 10:32:57;;;;;;;18.38;12.15;;;;;;;16.88;100.00;100237.25;5035930;28;20603;-75
2022/10/14 10:35:32;;;;;;;16.05;12.55;;;;;;;16.63;100.00;100249.03;5034330;28;20707;-74
2022/10/14 10:38:08;;;;;;;15.23;11.13;;;;;;;16.73;100.00;100244.63;5035412;28;20686;-74
2022/10/14 10:40:41;;;;;;;17.08;10.18;;;;;;;16.47;100.00;100244.72;5089595;22;20242;-75
2022/10/14 10:43:36;;;;;;;14.10;10.55;;;;;;;16.58;100.00;100238.50;5073348;28;20306;-74
2022/10/14 10:46:16;;;;;;;12.15;9.70;;;;;;;16.75;100.00;100226.38;5053147;28;20200;-74
2022/10/14 10:48:46;;;;;;;12.73;10.07;;;;;;;16.59;100.00;100221.19;5071332;28;20208;-76
2022/10/14 10:51:26;;;;;;;12.30;9.20;;;;;;;16.72;100.00;100225.75;5053122;28;20204;-74
2022/10/14 10:54:07;;;;;;;12.20;9.40;;;;;;;16.71;100.00;100222.16;5054023;28;20612;-76
2022/10/14 10:56:41;;;;;;;11.35;8.80;;;;;;;16.66;100.00;100225.22;5054363;28;20192;-76
2022/10/14 10:59:38;;;;;;;16.88;10.43;;;;;;;16.54;100.00;100220.66;5055696;28;20621;-75
2022/10/14 11:02:47;;;;;;;12.15;9.50;;;;;;;16.57;100.00;100223.16;4979140;28;20220;-76
2022/10/14 11:05:20;;;;;;;16.00;11.00;;;;;;;16.52;100.00;100219.03;4979430;28;20235;-74
2022/10/14 11:13:42;;;;;;;12.73;9.93;;;;;;;16.55;100.00;100218.81;4985821;28;20207;-75
2022/10/14 11:16:16;;;;;;;15.07;10.50;;;;;;;16.26;100.00;100232.69;4970012;28;20203;-74
2022/10/14 11:18:48;;;;;;;13.02;10.55;;;;;;;16.38;100.00;100218.19;4984476;28;20301;-76